sensor_id;sensor_type;location;lat;lon;timestamp;P1;durP1;ratioP1;P2;durP2;ratioP2
9124;SDS011;4597;48.730;9.114;2023-04-07T00:01:18;8.63;;;7.07;;
9124;SDS011;4597;48.730;9.114;2023-04-07T00:03:43;7.10;;;6.40;;
9124;SDS011;4597;48.730;9.114;2023-04-07T00:06:09;7.37;;;6.67;;
9124;SDS011;4597;48.730;9.114;2023-04-07T00:08:34;7.27;;;6.57;;
9124;SDS011;4597;48.730;9.114;2023-04-07T00:11:00;7.93;;;7.03;;
9124;SDS011;4597;48.730;9.114;2023-04-07T00:13:25;8.07;;;7.23;;
9124;SDS011;4597;48.730;9.114;2023-04-07T00:15:51;7.80;;;7.03;;
9124;SDS011;4597;48.730;9.114;2023-04-07T00:18:16;7.83;;;7.03;;
9124;SDS011;4597;48.730;9.114;2023-04-07T00:20:42;7.87;;;6.80;;
9124;SDS011;4597;48.730;9.114;2023-04-07T00:23:07;7.80;;;6.83;;
9124;SDS011;4597;48.730;9.114;2023-04-07T00:25:33;8.47;;;6.70;;
9124;SDS011;4597;48.730;9.114;2023-04-07T00:27:58;7.70;;;6.50;;
9124;SDS011;4597;48.730;9.114;2023-04-07T00:30:24;8.27;;;7.47;;
9124;SDS011;4597;48.730;9.114;2023-04-07T00:32:50;7.83;;;7.10;;
9124;SDS011;4597;48.730;9.114;2023-04-07T00:35:15;8.30;;;7.20;;
9124;SDS011;4597;48.730;9.114;2023-04-07T00:37:41;7.63;;;6.83;;
9124;SDS011;4597;48.730;9.114;2023-04-07T00:40:07;8.10;;;7.27;;
9124;SDS011;4597;48.730;9.114;2023-04-07T00:42:33;8.20;;;7.33;;
9124;SDS011;4597;48.730;9.114;2023-04-07T00:44:59;7.70;;;6.90;;
9124;SDS011;4597;48.730;9.114;2023-04-07T00:47:25;8.37;;;6.90;;
9124;SDS011;4597;48.730;9.114;2023-04-07T00:49:50;7.30;;;6.53;;
9124;SDS011;4597;48.730;9.114;2023-04-07T00:52:16;7.93;;;7.10;;
9124;SDS011;4597;48.730;9.114;2023-04-07T00:54:42;7.60;;;6.90;;
9124;SDS011;4597;48.730;9.114;2023-04-07T00:57:10;8.03;;;7.33;;
9124;SDS011;4597;48.730;9.114;2023-04-07T00:59:36;7.57;;;6.87;;
9124;SDS011;4597;48.730;9.114;2023-04-07T01:02:15;7.60;;;6.80;;
9124;SDS011;4597;48.730;9.114;2023-04-07T01:04:43;7.80;;;7.00;;
9124;SDS011;4597;48.730;9.114;2023-04-07T01:07:13;7.43;;;6.73;;
9124;SDS011;4597;48.730;9.114;2023-04-07T01:09:47;8.03;;;7.30;;
9124;SDS011;4597;48.730;9.114;2023-04-07T01:15:10;7.90;;;7.10;;
9124;SDS011;4597;48.730;9.114;2023-04-07T01:17:41;7.30;;;6.60;;
9124;SDS011;4597;48.730;9.114;2023-04-07T01:20:11;7.37;;;6.60;;
9124;SDS011;4597;48.730;9.114;2023-04-07T01:22:42;8.00;;;7.20;;
9124;SDS011;4597;48.730;9.114;2023-04-07T01:25:32;7.27;;;6.60;;
9124;SDS011;4597;48.730;9.114;2023-04-07T01:30:58;7.23;;;6.30;;
9124;SDS011;4597;48.730;9.114;2023-04-07T01:33:25;7.37;;;6.67;;
9124;SDS011;4597;48.730;9.114;2023-04-07T01:35:56;7.60;;;6.30;;
9124;SDS011;4597;48.730;9.114;2023-04-07T01:38:24;7.23;;;6.53;;
9124;SDS011;4597;48.730;9.114;2023-04-07T01:40:51;7.47;;;6.63;;
9124;SDS011;4597;48.730;9.114;2023-04-07T01:43:18;9.03;;;6.60;;
9124;SDS011;4597;48.730;9.114;2023-04-07T01:45:45;7.67;;;6.90;;
9124;SDS011;4597;48.730;9.114;2023-04-07T01:48:11;7.73;;;6.47;;
9124;SDS011;4597;48.730;9.114;2023-04-07T01:50:38;8.10;;;7.30;;
9124;SDS011;4597;48.730;9.114;2023-04-07T01:53:04;6.73;;;6.17;;
9124;SDS011;4597;48.730;9.114;2023-04-07T01:55:30;7.00;;;6.30;;
9124;SDS011;4597;48.730;9.114;2023-04-07T01:57:56;8.07;;;6.97;;
9124;SDS011;4597;48.730;9.114;2023-04-07T02:00:22;8.17;;;7.23;;
9124;SDS011;4597;48.730;9.114;2023-04-07T02:02:48;7.17;;;6.47;;
9124;SDS011;4597;48.730;9.114;2023-04-07T02:05:18;7.97;;;7.23;;
9124;SDS011;4597;48.730;9.114;2023-04-07T02:07:50;8.40;;;7.17;;
9124;SDS011;4597;48.730;9.114;2023-04-07T02:10:20;7.07;;;6.37;;
9124;SDS011;4597;48.730;9.114;2023-04-07T02:12:47;7.30;;;6.60;;
9124;SDS011;4597;48.730;9.114;2023-04-07T02:15:14;9.33;;;7.90;;
9124;SDS011;4597;48.730;9.114;2023-04-07T02:17:41;7.80;;;6.90;;
9124;SDS011;4597;48.730;9.114;2023-04-07T02:20:10;7.63;;;6.90;;
9124;SDS011;4597;48.730;9.114;2023-04-07T02:22:38;7.93;;;7.13;;
9124;SDS011;4597;48.730;9.114;2023-04-07T02:25:22;9.27;;;7.47;;
9124;SDS011;4597;48.730;9.114;2023-04-07T02:27:49;7.77;;;7.00;;
9124;SDS011;4597;48.730;9.114;2023-04-07T02:30:15;7.57;;;6.70;;
9124;SDS011;4597;48.730;9.114;2023-04-07T02:32:41;6.97;;;6.27;;
9124;SDS011;4597;48.730;9.114;2023-04-07T02:35:06;8.53;;;7.30;;
9124;SDS011;4597;48.730;9.114;2023-04-07T02:37:32;7.60;;;6.90;;
9124;SDS011;4597;48.730;9.114;2023-04-07T02:39:57;7.87;;;6.93;;
9124;SDS011;4597;48.730;9.114;2023-04-07T02:42:23;7.50;;;6.50;;
9124;SDS011;4597;48.730;9.114;2023-04-07T02:44:49;7.43;;;6.67;;
9124;SDS011;4597;48.730;9.114;2023-04-07T02:47:14;7.77;;;7.07;;
9124;SDS011;4597;48.730;9.114;2023-04-07T02:49:40;8.97;;;6.97;;
9124;SDS011;4597;48.730;9.114;2023-04-07T02:52:06;8.10;;;6.63;;
9124;SDS011;4597;48.730;9.114;2023-04-07T02:54:31;7.87;;;7.07;;
9124;SDS011;4597;48.730;9.114;2023-04-07T02:56:57;7.60;;;6.50;;
9124;SDS011;4597;48.730;9.114;2023-04-07T02:59:22;7.40;;;6.70;;
9124;SDS011;4597;48.730;9.114;2023-04-07T03:01:48;7.57;;;6.77;;
9124;SDS011;4597;48.730;9.114;2023-04-07T03:06:41;7.50;;;6.80;;
9124;SDS011;4597;48.730;9.114;2023-04-07T03:09:06;7.40;;;6.70;;
9124;SDS011;4597;48.730;9.114;2023-04-07T03:11:32;8.73;;;7.30;;
9124;SDS011;4597;48.730;9.114;2023-04-07T03:13:57;8.20;;;7.40;;
9124;SDS011;4597;48.730;9.114;2023-04-07T03:16:23;7.93;;;7.23;;
9124;SDS011;4597;48.730;9.114;2023-04-07T03:18:48;9.50;;;7.37;;
9124;SDS011;4597;48.730;9.114;2023-04-07T03:21:14;7.50;;;6.80;;
9124;SDS011;4597;48.730;9.114;2023-04-07T03:23:39;7.20;;;6.60;;
9124;SDS011;4597;48.730;9.114;2023-04-07T03:26:05;8.03;;;7.03;;
9124;SDS011;4597;48.730;9.114;2023-04-07T03:28:30;8.67;;;7.13;;
9124;SDS011;4597;48.730;9.114;2023-04-07T03:30:56;8.07;;;7.27;;
9124;SDS011;4597;48.730;9.114;2023-04-07T03:33:21;7.83;;;7.03;;
9124;SDS011;4597;48.730;9.114;2023-04-07T03:35:47;9.20;;;6.63;;
9124;SDS011;4597;48.730;9.114;2023-04-07T03:38:12;8.20;;;7.40;;
9124;SDS011;4597;48.730;9.114;2023-04-07T03:40:38;7.70;;;7.00;;
9124;SDS011;4597;48.730;9.114;2023-04-07T03:43:03;7.77;;;6.97;;
9124;SDS011;4597;48.730;9.114;2023-04-07T03:45:29;8.00;;;7.07;;
9124;SDS011;4597;48.730;9.114;2023-04-07T03:47:54;8.47;;;7.40;;
9124;SDS011;4597;48.730;9.114;2023-04-07T03:50:20;8.43;;;7.53;;
9124;SDS011;4597;48.730;9.114;2023-04-07T03:52:45;8.13;;;7.10;;
9124;SDS011;4597;48.730;9.114;2023-04-07T03:55:11;7.23;;;6.53;;
9124;SDS011;4597;48.730;9.114;2023-04-07T03:57:36;8.43;;;7.33;;
9124;SDS011;4597;48.730;9.114;2023-04-07T04:00:03;7.87;;;7.03;;
9124;SDS011;4597;48.730;9.114;2023-04-07T04:02:29;8.63;;;7.13;;
9124;SDS011;4597;48.730;9.114;2023-04-07T04:04:55;7.37;;;6.67;;
9124;SDS011;4597;48.730;9.114;2023-04-07T04:07:20;8.00;;;7.20;;
9124;SDS011;4597;48.730;9.114;2023-04-07T04:09:46;7.63;;;6.83;;
9124;SDS011;4597;48.730;9.114;2023-04-07T04:12:11;7.70;;;7.00;;
9124;SDS011;4597;48.730;9.114;2023-04-07T04:14:37;8.60;;;7.20;;
9124;SDS011;4597;48.730;9.114;2023-04-07T04:17:02;7.70;;;6.90;;
9124;SDS011;4597;48.730;9.114;2023-04-07T04:19:28;7.33;;;6.53;;
9124;SDS011;4597;48.730;9.114;2023-04-07T04:21:53;7.70;;;6.90;;
9124;SDS011;4597;48.730;9.114;2023-04-07T04:24:18;7.83;;;7.03;;
9124;SDS011;4597;48.730;9.114;2023-04-07T04:26:44;7.73;;;7.03;;
9124;SDS011;4597;48.730;9.114;2023-04-07T04:29:10;8.03;;;7.27;;
9124;SDS011;4597;48.730;9.114;2023-04-07T04:31:35;7.90;;;7.10;;
9124;SDS011;4597;48.730;9.114;2023-04-07T04:34:01;8.17;;;6.87;;
9124;SDS011;4597;48.730;9.114;2023-04-07T04:36:26;7.93;;;7.13;;
9124;SDS011;4597;48.730;9.114;2023-04-07T04:38:52;8.00;;;7.27;;
9124;SDS011;4597;48.730;9.114;2023-04-07T04:41:17;7.73;;;7.03;;
9124;SDS011;4597;48.730;9.114;2023-04-07T04:43:43;8.57;;;7.77;;
9124;SDS011;4597;48.730;9.114;2023-04-07T04:46:08;8.33;;;7.47;;
9124;SDS011;4597;48.730;9.114;2023-04-07T04:48:34;7.63;;;6.93;;
9124;SDS011;4597;48.730;9.114;2023-04-07T04:50:59;7.87;;;7.07;;
9124;SDS011;4597;48.730;9.114;2023-04-07T04:53:25;7.57;;;6.83;;
9124;SDS011;4597;48.730;9.114;2023-04-07T04:55:51;8.23;;;7.43;;
9124;SDS011;4597;48.730;9.114;2023-04-07T04:58:17;7.60;;;6.87;;
9124;SDS011;4597;48.730;9.114;2023-04-07T05:00:43;8.13;;;7.33;;
9124;SDS011;4597;48.730;9.114;2023-04-07T05:03:09;7.40;;;6.70;;
9124;SDS011;4597;48.730;9.114;2023-04-07T05:05:34;9.27;;;7.80;;
9124;SDS011;4597;48.730;9.114;2023-04-07T05:08:00;8.17;;;7.40;;
9124;SDS011;4597;48.730;9.114;2023-04-07T05:10:25;8.67;;;7.80;;
9124;SDS011;4597;48.730;9.114;2023-04-07T05:12:51;8.10;;;6.90;;
9124;SDS011;4597;48.730;9.114;2023-04-07T05:15:16;8.00;;;7.20;;
9124;SDS011;4597;48.730;9.114;2023-04-07T05:17:42;8.47;;;7.57;;
9124;SDS011;4597;48.730;9.114;2023-04-07T05:20:08;9.27;;;7.33;;
9124;SDS011;4597;48.730;9.114;2023-04-07T05:22:34;8.20;;;7.40;;
9124;SDS011;4597;48.730;9.114;2023-04-07T05:25:00;9.33;;;7.10;;
9124;SDS011;4597;48.730;9.114;2023-04-07T05:27:26;8.87;;;7.97;;
9124;SDS011;4597;48.730;9.114;2023-04-07T05:29:51;8.80;;;7.40;;
9124;SDS011;4597;48.730;9.114;2023-04-07T05:32:17;8.30;;;7.50;;
9124;SDS011;4597;48.730;9.114;2023-04-07T05:34:43;8.27;;;7.47;;
9124;SDS011;4597;48.730;9.114;2023-04-07T05:37:09;8.30;;;7.50;;
9124;SDS011;4597;48.730;9.114;2023-04-07T05:39:34;8.77;;;7.43;;
9124;SDS011;4597;48.730;9.114;2023-04-07T05:42:00;8.07;;;7.10;;
9124;SDS011;4597;48.730;9.114;2023-04-07T05:44:26;8.10;;;7.40;;
9124;SDS011;4597;48.730;9.114;2023-04-07T05:46:52;8.40;;;7.40;;
9124;SDS011;4597;48.730;9.114;2023-04-07T05:49:18;9.50;;;8.07;;
9124;SDS011;4597;48.730;9.114;2023-04-07T05:51:43;9.60;;;8.03;;
9124;SDS011;4597;48.730;9.114;2023-04-07T05:54:09;10.17;;;8.43;;
9124;SDS011;4597;48.730;9.114;2023-04-07T05:56:34;9.43;;;8.17;;
9124;SDS011;4597;48.730;9.114;2023-04-07T05:59:01;9.20;;;8.30;;
9124;SDS011;4597;48.730;9.114;2023-04-07T06:01:27;10.17;;;8.20;;
9124;SDS011;4597;48.730;9.114;2023-04-07T06:03:53;9.07;;;8.00;;
9124;SDS011;4597;48.730;9.114;2023-04-07T06:06:18;8.20;;;7.40;;
9124;SDS011;4597;48.730;9.114;2023-04-07T06:08:44;8.87;;;7.97;;
9124;SDS011;4597;48.730;9.114;2023-04-07T06:11:10;8.17;;;7.37;;
9124;SDS011;4597;48.730;9.114;2023-04-07T06:13:35;7.83;;;7.03;;
9124;SDS011;4597;48.730;9.114;2023-04-07T06:16:01;8.77;;;7.87;;
9124;SDS011;4597;48.730;9.114;2023-04-07T06:18:26;8.63;;;7.73;;
9124;SDS011;4597;48.730;9.114;2023-04-07T06:20:52;10.07;;;8.07;;
9124;SDS011;4597;48.730;9.114;2023-04-07T06:23:17;9.73;;;8.20;;
9124;SDS011;4597;48.730;9.114;2023-04-07T06:25:43;9.57;;;8.57;;
9124;SDS011;4597;48.730;9.114;2023-04-07T06:28:09;9.00;;;8.10;;
9124;SDS011;4597;48.730;9.114;2023-04-07T06:30:34;9.47;;;8.07;;
9124;SDS011;4597;48.730;9.114;2023-04-07T06:33:00;10.23;;;8.83;;
9124;SDS011;4597;48.730;9.114;2023-04-07T06:35:25;10.60;;;9.00;;
9124;SDS011;4597;48.730;9.114;2023-04-07T06:37:51;11.23;;;9.13;;
9124;SDS011;4597;48.730;9.114;2023-04-07T06:40:17;9.47;;;8.43;;
9124;SDS011;4597;48.730;9.114;2023-04-07T06:42:42;8.67;;;7.80;;
9124;SDS011;4597;48.730;9.114;2023-04-07T06:45:08;9.50;;;8.40;;
9124;SDS011;4597;48.730;9.114;2023-04-07T06:47:34;9.60;;;8.67;;
9124;SDS011;4597;48.730;9.114;2023-04-07T06:50:00;9.67;;;8.67;;
9124;SDS011;4597;48.730;9.114;2023-04-07T06:52:25;9.07;;;8.17;;
9124;SDS011;4597;48.730;9.114;2023-04-07T06:54:51;10.03;;;8.23;;
9124;SDS011;4597;48.730;9.114;2023-04-07T06:57:17;10.10;;;9.10;;
9124;SDS011;4597;48.730;9.114;2023-04-07T06:59:42;9.60;;;8.23;;
9124;SDS011;4597;48.730;9.114;2023-04-07T07:02:08;8.57;;;7.67;;
9124;SDS011;4597;48.730;9.114;2023-04-07T07:04:33;10.07;;;8.10;;
9124;SDS011;4597;48.730;9.114;2023-04-07T07:06:59;9.63;;;8.30;;
9124;SDS011;4597;48.730;9.114;2023-04-07T07:09:25;9.50;;;8.60;;
9124;SDS011;4597;48.730;9.114;2023-04-07T07:11:51;10.33;;;8.23;;
9124;SDS011;4597;48.730;9.114;2023-04-07T07:14:17;8.63;;;7.63;;
9124;SDS011;4597;48.730;9.114;2023-04-07T07:16:42;9.80;;;8.80;;
9124;SDS011;4597;48.730;9.114;2023-04-07T07:19:07;9.67;;;7.87;;
9124;SDS011;4597;48.730;9.114;2023-04-07T07:21:33;10.57;;;8.70;;
9124;SDS011;4597;48.730;9.114;2023-04-07T07:23:59;8.27;;;7.47;;
9124;SDS011;4597;48.730;9.114;2023-04-07T07:26:24;9.33;;;8.27;;
9124;SDS011;4597;48.730;9.114;2023-04-07T07:28:51;9.07;;;8.17;;
9124;SDS011;4597;48.730;9.114;2023-04-07T07:31:16;9.23;;;8.33;;
9124;SDS011;4597;48.730;9.114;2023-04-07T07:33:42;9.00;;;7.80;;
9124;SDS011;4597;48.730;9.114;2023-04-07T07:36:10;9.50;;;8.43;;
9124;SDS011;4597;48.730;9.114;2023-04-07T07:38:36;8.53;;;7.73;;
9124;SDS011;4597;48.730;9.114;2023-04-07T07:41:01;9.40;;;8.03;;
9124;SDS011;4597;48.730;9.114;2023-04-07T07:43:27;10.07;;;7.77;;
9124;SDS011;4597;48.730;9.114;2023-04-07T07:45:53;9.67;;;8.50;;
9124;SDS011;4597;48.730;9.114;2023-04-07T07:48:18;8.57;;;7.77;;
9124;SDS011;4597;48.730;9.114;2023-04-07T07:50:44;11.73;;;7.80;;
9124;SDS011;4597;48.730;9.114;2023-04-07T07:53:11;8.43;;;7.40;;
9124;SDS011;4597;48.730;9.114;2023-04-07T07:55:36;8.27;;;7.47;;
9124;SDS011;4597;48.730;9.114;2023-04-07T07:58:02;8.77;;;7.30;;
9124;SDS011;4597;48.730;9.114;2023-04-07T08:00:27;8.03;;;7.23;;
9124;SDS011;4597;48.730;9.114;2023-04-07T08:02:53;8.77;;;7.30;;
9124;SDS011;4597;48.730;9.114;2023-04-07T08:05:18;8.03;;;6.60;;
9124;SDS011;4597;48.730;9.114;2023-04-07T08:07:44;7.07;;;6.37;;
9124;SDS011;4597;48.730;9.114;2023-04-07T08:10:10;6.77;;;6.07;;
9124;SDS011;4597;48.730;9.114;2023-04-07T08:12:37;6.07;;;5.43;;
9124;SDS011;4597;48.730;9.114;2023-04-07T08:15:03;6.50;;;5.40;;
9124;SDS011;4597;48.730;9.114;2023-04-07T08:17:29;6.13;;;5.53;;
9124;SDS011;4597;48.730;9.114;2023-04-07T08:19:55;6.40;;;5.53;;
9124;SDS011;4597;48.730;9.114;2023-04-07T08:22:20;5.53;;;5.03;;
9124;SDS011;4597;48.730;9.114;2023-04-07T08:24:46;6.20;;;5.60;;
9124;SDS011;4597;48.730;9.114;2023-04-07T08:27:12;6.73;;;5.73;;
9124;SDS011;4597;48.730;9.114;2023-04-07T08:29:37;5.67;;;5.17;;
9124;SDS011;4597;48.730;9.114;2023-04-07T08:32:03;5.63;;;5.23;;
9124;SDS011;4597;48.730;9.114;2023-04-07T08:34:28;6.03;;;4.90;;
9124;SDS011;4597;48.730;9.114;2023-04-07T08:36:54;7.20;;;5.90;;
9124;SDS011;4597;48.730;9.114;2023-04-07T08:39:20;5.33;;;4.83;;
9124;SDS011;4597;48.730;9.114;2023-04-07T08:41:46;6.13;;;5.53;;
9124;SDS011;4597;48.730;9.114;2023-04-07T08:44:14;6.00;;;5.50;;
9124;SDS011;4597;48.730;9.114;2023-04-07T08:46:40;6.23;;;4.73;;
9124;SDS011;4597;48.730;9.114;2023-04-07T08:49:07;8.37;;;5.27;;
9124;SDS011;4597;48.730;9.114;2023-04-07T08:51:34;5.33;;;4.90;;
9124;SDS011;4597;48.730;9.114;2023-04-07T08:54:11;7.03;;;5.50;;
9124;SDS011;4597;48.730;9.114;2023-04-07T08:56:38;6.93;;;5.80;;
9124;SDS011;4597;48.730;9.114;2023-04-07T08:59:06;6.90;;;6.20;;
9124;SDS011;4597;48.730;9.114;2023-04-07T09:01:33;7.50;;;5.77;;
9124;SDS011;4597;48.730;9.114;2023-04-07T09:04:00;5.80;;;5.13;;
9124;SDS011;4597;48.730;9.114;2023-04-07T09:06:29;6.80;;;5.17;;
9124;SDS011;4597;48.730;9.114;2023-04-07T09:08:56;5.60;;;5.17;;
9124;SDS011;4597;48.730;9.114;2023-04-07T09:11:22;5.20;;;4.20;;
9124;SDS011;4597;48.730;9.114;2023-04-07T09:13:48;4.00;;;3.70;;
9124;SDS011;4597;48.730;9.114;2023-04-07T09:16:15;5.33;;;4.23;;
9124;SDS011;4597;48.730;9.114;2023-04-07T09:18:40;3.50;;;3.20;;
9124;SDS011;4597;48.730;9.114;2023-04-07T09:21:06;4.57;;;4.13;;
9124;SDS011;4597;48.730;9.114;2023-04-07T09:23:36;5.13;;;4.10;;
9124;SDS011;4597;48.730;9.114;2023-04-07T09:26:19;3.97;;;3.73;;
9124;SDS011;4597;48.730;9.114;2023-04-07T09:31:43;4.77;;;3.07;;
9124;SDS011;4597;48.730;9.114;2023-04-07T09:34:24;3.20;;;3.00;;
9124;SDS011;4597;48.730;9.114;2023-04-07T09:36:50;3.03;;;2.40;;
9124;SDS011;4597;48.730;9.114;2023-04-07T09:39:16;3.57;;;2.70;;
9124;SDS011;4597;48.730;9.114;2023-04-07T09:41:41;5.03;;;2.93;;
9124;SDS011;4597;48.730;9.114;2023-04-07T09:44:07;2.40;;;2.30;;
9124;SDS011;4597;48.730;9.114;2023-04-07T09:46:34;3.80;;;2.60;;
9124;SDS011;4597;48.730;9.114;2023-04-07T09:49:03;3.87;;;3.47;;
9124;SDS011;4597;48.730;9.114;2023-04-07T09:51:32;3.63;;;2.70;;
9124;SDS011;4597;48.730;9.114;2023-04-07T09:54:00;2.20;;;2.00;;
9124;SDS011;4597;48.730;9.114;2023-04-07T09:56:26;4.07;;;2.07;;
9124;SDS011;4597;48.730;9.114;2023-04-07T09:58:53;4.83;;;2.20;;
9124;SDS011;4597;48.730;9.114;2023-04-07T10:01:20;4.47;;;2.57;;
9124;SDS011;4597;48.730;9.114;2023-04-07T10:03:48;3.80;;;2.40;;
9124;SDS011;4597;48.730;9.114;2023-04-07T10:06:14;2.90;;;2.30;;
9124;SDS011;4597;48.730;9.114;2023-04-07T10:08:41;2.97;;;2.27;;
9124;SDS011;4597;48.730;9.114;2023-04-07T10:11:07;2.60;;;2.17;;
9124;SDS011;4597;48.730;9.114;2023-04-07T10:13:35;2.60;;;2.40;;
9124;SDS011;4597;48.730;9.114;2023-04-07T10:16:02;3.63;;;2.10;;
9124;SDS011;4597;48.730;9.114;2023-04-07T10:18:30;2.50;;;2.30;;
9124;SDS011;4597;48.730;9.114;2023-04-07T10:20:59;2.80;;;2.60;;
9124;SDS011;4597;48.730;9.114;2023-04-07T10:26:06;2.73;;;2.47;;
9124;SDS011;4597;48.730;9.114;2023-04-07T10:28:32;3.07;;;2.87;;
9124;SDS011;4597;48.730;9.114;2023-04-07T10:31:02;3.30;;;2.37;;
9124;SDS011;4597;48.730;9.114;2023-04-07T10:33:47;3.13;;;2.80;;
9124;SDS011;4597;48.730;9.114;2023-04-07T10:36:15;5.03;;;2.60;;
9124;SDS011;4597;48.730;9.114;2023-04-07T10:44:01;3.17;;;2.17;;
9124;SDS011;4597;48.730;9.114;2023-04-07T10:49:16;2.93;;;2.60;;
9124;SDS011;4597;48.730;9.114;2023-04-07T10:51:41;3.00;;;2.80;;
9124;SDS011;4597;48.730;9.114;2023-04-07T10:54:14;3.10;;;2.63;;
9124;SDS011;4597;48.730;9.114;2023-04-07T10:59:34;4.07;;;2.43;;
9124;SDS011;4597;48.730;9.114;2023-04-07T11:04:41;4.33;;;3.00;;
9124;SDS011;4597;48.730;9.114;2023-04-07T11:07:08;3.03;;;2.83;;
9124;SDS011;4597;48.730;9.114;2023-04-07T11:09:34;3.50;;;3.20;;
9124;SDS011;4597;48.730;9.114;2023-04-07T11:12:00;3.70;;;3.23;;
9124;SDS011;4597;48.730;9.114;2023-04-07T11:16:52;3.20;;;3.00;;
9124;SDS011;4597;48.730;9.114;2023-04-07T11:19:17;4.60;;;3.00;;
9124;SDS011;4597;48.730;9.114;2023-04-07T11:21:43;3.03;;;2.70;;
9124;SDS011;4597;48.730;9.114;2023-04-07T11:24:09;5.67;;;3.10;;
9124;SDS011;4597;48.730;9.114;2023-04-07T11:26:38;3.77;;;3.57;;
9124;SDS011;4597;48.730;9.114;2023-04-07T11:29:05;4.13;;;3.00;;
9124;SDS011;4597;48.730;9.114;2023-04-07T11:31:31;5.23;;;3.00;;
9124;SDS011;4597;48.730;9.114;2023-04-07T11:33:58;3.33;;;2.87;;
9124;SDS011;4597;48.730;9.114;2023-04-07T11:36:37;4.47;;;3.30;;
9124;SDS011;4597;48.730;9.114;2023-04-07T11:39:04;4.37;;;3.40;;
9124;SDS011;4597;48.730;9.114;2023-04-07T11:41:30;3.50;;;3.17;;
9124;SDS011;4597;48.730;9.114;2023-04-07T11:44:04;4.90;;;4.10;;
9124;SDS011;4597;48.730;9.114;2023-04-07T11:46:30;4.10;;;2.97;;
9124;SDS011;4597;48.730;9.114;2023-04-07T11:49:06;2.90;;;2.70;;
9124;SDS011;4597;48.730;9.114;2023-04-07T11:51:33;5.47;;;3.80;;
9124;SDS011;4597;48.730;9.114;2023-04-07T11:53:59;3.90;;;3.50;;
9124;SDS011;4597;48.730;9.114;2023-04-07T11:56:25;3.97;;;3.20;;
9124;SDS011;4597;48.730;9.114;2023-04-07T11:58:52;4.20;;;3.80;;
9124;SDS011;4597;48.730;9.114;2023-04-07T12:01:19;4.17;;;3.70;;
9124;SDS011;4597;48.730;9.114;2023-04-07T12:06:31;5.87;;;5.37;;
9124;SDS011;4597;48.730;9.114;2023-04-07T12:08:59;5.80;;;5.30;;
9124;SDS011;4597;48.730;9.114;2023-04-07T12:11:29;6.07;;;5.50;;
9124;SDS011;4597;48.730;9.114;2023-04-07T12:13:55;6.47;;;5.87;;
9124;SDS011;4597;48.730;9.114;2023-04-07T12:16:22;5.80;;;5.30;;
9124;SDS011;4597;48.730;9.114;2023-04-07T12:18:48;5.90;;;5.30;;
9124;SDS011;4597;48.730;9.114;2023-04-07T12:21:15;5.50;;;4.97;;
9124;SDS011;4597;48.730;9.114;2023-04-07T12:23:41;5.67;;;5.00;;
9124;SDS011;4597;48.730;9.114;2023-04-07T12:26:06;5.20;;;4.80;;
9124;SDS011;4597;48.730;9.114;2023-04-07T12:28:32;5.77;;;5.07;;
9124;SDS011;4597;48.730;9.114;2023-04-07T12:30:58;5.23;;;4.73;;
9124;SDS011;4597;48.730;9.114;2023-04-07T12:33:23;5.40;;;4.87;;
9124;SDS011;4597;48.730;9.114;2023-04-07T12:35:49;4.70;;;4.30;;
9124;SDS011;4597;48.730;9.114;2023-04-07T12:38:15;4.87;;;4.10;;
9124;SDS011;4597;48.730;9.114;2023-04-07T12:40:41;4.63;;;4.23;;
9124;SDS011;4597;48.730;9.114;2023-04-07T12:43:07;5.80;;;4.53;;
9124;SDS011;4597;48.730;9.114;2023-04-07T12:45:32;4.97;;;4.47;;
9124;SDS011;4597;48.730;9.114;2023-04-07T12:47:58;5.33;;;4.90;;
9124;SDS011;4597;48.730;9.114;2023-04-07T12:50:24;5.00;;;4.60;;
9124;SDS011;4597;48.730;9.114;2023-04-07T12:52:50;6.13;;;4.53;;
9124;SDS011;4597;48.730;9.114;2023-04-07T12:55:17;5.80;;;5.30;;
9124;SDS011;4597;48.730;9.114;2023-04-07T12:57:42;5.53;;;4.67;;
9124;SDS011;4597;48.730;9.114;2023-04-07T13:00:08;7.13;;;4.70;;
9124;SDS011;4597;48.730;9.114;2023-04-07T13:02:34;5.10;;;4.60;;
9124;SDS011;4597;48.730;9.114;2023-04-07T13:05:02;5.13;;;4.73;;
9124;SDS011;4597;48.730;9.114;2023-04-07T13:07:28;4.50;;;4.10;;
9124;SDS011;4597;48.730;9.114;2023-04-07T13:09:54;5.47;;;4.87;;
9124;SDS011;4597;48.730;9.114;2023-04-07T13:12:21;4.33;;;3.90;;
9124;SDS011;4597;48.730;9.114;2023-04-07T13:14:47;5.40;;;4.83;;
9124;SDS011;4597;48.730;9.114;2023-04-07T13:17:12;5.30;;;4.77;;
9124;SDS011;4597;48.730;9.114;2023-04-07T13:19:38;5.80;;;4.80;;
9124;SDS011;4597;48.730;9.114;2023-04-07T13:22:04;5.17;;;4.70;;
9124;SDS011;4597;48.730;9.114;2023-04-07T13:24:30;6.03;;;5.23;;
9124;SDS011;4597;48.730;9.114;2023-04-07T13:26:56;6.13;;;4.60;;
9124;SDS011;4597;48.730;9.114;2023-04-07T13:29:22;4.83;;;3.97;;
9124;SDS011;4597;48.730;9.114;2023-04-07T13:31:48;5.07;;;4.50;;
9124;SDS011;4597;48.730;9.114;2023-04-07T13:34:13;5.07;;;4.20;;
9124;SDS011;4597;48.730;9.114;2023-04-07T13:36:39;6.00;;;4.90;;
9124;SDS011;4597;48.730;9.114;2023-04-07T13:39:05;4.57;;;4.17;;
9124;SDS011;4597;48.730;9.114;2023-04-07T13:41:31;4.30;;;3.90;;
9124;SDS011;4597;48.730;9.114;2023-04-07T13:43:57;3.60;;;3.37;;
9124;SDS011;4597;48.730;9.114;2023-04-07T13:46:23;3.90;;;3.60;;
9124;SDS011;4597;48.730;9.114;2023-04-07T13:48:51;4.97;;;3.80;;
9124;SDS011;4597;48.730;9.114;2023-04-07T13:51:16;4.83;;;4.33;;
9124;SDS011;4597;48.730;9.114;2023-04-07T13:53:42;5.63;;;4.60;;
9124;SDS011;4597;48.730;9.114;2023-04-07T13:56:09;4.50;;;4.10;;
9124;SDS011;4597;48.730;9.114;2023-04-07T13:58:35;4.13;;;3.83;;
9124;SDS011;4597;48.730;9.114;2023-04-07T14:01:01;4.30;;;3.90;;
9124;SDS011;4597;48.730;9.114;2023-04-07T14:03:27;3.63;;;3.17;;
9124;SDS011;4597;48.730;9.114;2023-04-07T14:05:53;4.30;;;3.90;;
9124;SDS011;4597;48.730;9.114;2023-04-07T14:08:19;4.67;;;4.20;;
9124;SDS011;4597;48.730;9.114;2023-04-07T14:10:47;4.43;;;4.03;;
9124;SDS011;4597;48.730;9.114;2023-04-07T14:13:13;4.33;;;3.90;;
9124;SDS011;4597;48.730;9.114;2023-04-07T14:15:38;4.23;;;3.93;;
9124;SDS011;4597;48.730;9.114;2023-04-07T14:18:04;4.40;;;3.83;;
9124;SDS011;4597;48.730;9.114;2023-04-07T14:20:30;5.40;;;4.57;;
9124;SDS011;4597;48.730;9.114;2023-04-07T14:22:56;5.30;;;4.80;;
9124;SDS011;4597;48.730;9.114;2023-04-07T14:25:22;5.03;;;4.23;;
9124;SDS011;4597;48.730;9.114;2023-04-07T14:27:47;4.57;;;4.10;;
9124;SDS011;4597;48.730;9.114;2023-04-07T14:30:13;4.80;;;3.60;;
9124;SDS011;4597;48.730;9.114;2023-04-07T14:32:38;4.97;;;4.37;;
9124;SDS011;4597;48.730;9.114;2023-04-07T14:35:04;4.40;;;4.10;;
9124;SDS011;4597;48.730;9.114;2023-04-07T14:37:30;4.57;;;3.50;;
9124;SDS011;4597;48.730;9.114;2023-04-07T14:39:55;4.10;;;3.27;;
9124;SDS011;4597;48.730;9.114;2023-04-07T14:42:22;4.97;;;3.27;;
9124;SDS011;4597;48.730;9.114;2023-04-07T14:44:48;3.30;;;3.10;;
9124;SDS011;4597;48.730;9.114;2023-04-07T14:47:13;3.13;;;2.93;;
9124;SDS011;4597;48.730;9.114;2023-04-07T14:49:39;5.03;;;3.63;;
9124;SDS011;4597;48.730;9.114;2023-04-07T14:52:04;5.53;;;3.33;;
9124;SDS011;4597;48.730;9.114;2023-04-07T14:54:30;3.10;;;2.90;;
9124;SDS011;4597;48.730;9.114;2023-04-07T14:56:55;3.70;;;3.20;;
9124;SDS011;4597;48.730;9.114;2023-04-07T14:59:21;4.07;;;3.30;;
9124;SDS011;4597;48.730;9.114;2023-04-07T15:01:46;3.70;;;3.33;;
9124;SDS011;4597;48.730;9.114;2023-04-07T15:04:12;3.93;;;3.47;;
9124;SDS011;4597;48.730;9.114;2023-04-07T15:06:40;4.73;;;3.80;;
9124;SDS011;4597;48.730;9.114;2023-04-07T15:09:09;3.80;;;3.50;;
9124;SDS011;4597;48.730;9.114;2023-04-07T15:11:35;3.20;;;3.00;;
9124;SDS011;4597;48.730;9.114;2023-04-07T15:14:00;4.00;;;3.53;;
9124;SDS011;4597;48.730;9.114;2023-04-07T15:16:26;3.60;;;3.40;;
9124;SDS011;4597;48.730;9.114;2023-04-07T15:18:51;3.83;;;2.77;;
9124;SDS011;4597;48.730;9.114;2023-04-07T15:21:17;3.10;;;2.90;;
9124;SDS011;4597;48.730;9.114;2023-04-07T15:23:43;4.37;;;3.73;;
9124;SDS011;4597;48.730;9.114;2023-04-07T15:26:09;2.40;;;2.20;;
9124;SDS011;4597;48.730;9.114;2023-04-07T15:28:36;2.20;;;2.10;;
9124;SDS011;4597;48.730;9.114;2023-04-07T15:31:02;3.63;;;1.90;;
9124;SDS011;4597;48.730;9.114;2023-04-07T15:33:32;2.37;;;2.20;;
9124;SDS011;4597;48.730;9.114;2023-04-07T15:35:59;5.00;;;3.00;;
9124;SDS011;4597;48.730;9.114;2023-04-07T15:38:25;3.03;;;2.67;;
9124;SDS011;4597;48.730;9.114;2023-04-07T15:40:54;1.93;;;1.83;;
9124;SDS011;4597;48.730;9.114;2023-04-07T15:43:20;2.30;;;1.80;;